Time;durP1;ratioP1;P1;durP2;ratioP2;P2;SDS_P1;SDS_P2;PMS_P1;PMS_P2;Temp;Humidity;BMP_temperature;BMP_pressure;BME280_temperature;BME280_humidity;BME280_pressure;Samples;Min_cycle;Max_cycle;Signal;HPM_P1;HPM_P2
2021/09/02 00:01:21;;;;;;;17.13;7.25;;;;;;;;;;5076839;28;20032;-75
2021/09/02 00:03:47;;;;;;;14.15;7.53;;;;;;;;;;5076518;28;20028;-74
2021/09/02 00:06:13;;;;;;;13.07;7.30;;;;;;;;;;5076498;28;20040;-73
2021/09/02 00:08:39;;;;;;;14.50;8.00;;;;;;;;;;5076322;28;20541;-74
2021/09/02 00:11:05;;;;;;;15.80;8.35;;;;;;;;;;5076610;28;20025;-73
2021/09/02 00:13:31;;;;;;;13.57;7.72;;;;;;;;;;5076349;28;20478;-73
2021/09/02 00:15:57;;;;;;;17.40;8.55;;;;;;;;;;5076568;28;20028;-74
2021/09/02 00:18:23;;;;;;;15.93;7.43;;;;;;;;;;5076241;28;20028;-74
2021/09/02 00:20:49;;;;;;;15.23;7.80;;;;;;;;;;5076198;28;20036;-73
2021/09/02 00:23:15;;;;;;;19.38;8.82;;;;;;;;;;5076161;28;20024;-75
2021/09/02 00:25:41;;;;;;;17.55;8.32;;;;;;;;;;5076624;28;20486;-73
2021/09/02 00:28:07;;;;;;;14.60;7.80;;;;;;;;;;5075991;28;20020;-75
2021/09/02 00:30:33;;;;;;;15.00;7.95;;;;;;;;;;5076051;28;20025;-74
2021/09/02 00:32:59;;;;;;;15.32;8.32;;;;;;;;;;5076055;28;20048;-72
2021/09/02 00:35:25;;;;;;;14.68;7.97;;;;;;;;;;5075969;28;20056;-74
2021/09/02 00:37:51;;;;;;;18.33;7.80;;;;;;;;;;5075966;28;20020;-73
2021/09/02 00:40:17;;;;;;;13.10;8.40;;;;;;;;;;5075911;28;20434;-73
2021/09/02 00:42:43;;;;;;;16.40;7.90;;;;;;;;;;5075843;28;20082;-73
2021/09/02 00:45:09;;;;;;;13.05;7.35;;;;;;;;;;5076327;28;20115;-74
2021/09/02 00:47:35;;;;;;;14.55;7.65;;;;;;;;;;5075709;28;20025;-74
2021/09/02 00:50:01;;;;;;;13.77;8.02;;;;;;;;;;5075700;28;20025;-73
2021/09/02 00:52:29;;;;;;;15.50;7.43;;;;;;;;;;5075635;28;20027;-74
2021/09/02 00:54:56;;;;;;;12.25;7.07;;;;;;;;;;5075587;28;20581;-74
2021/09/02 00:57:26;;;;;;;17.27;7.82;;;;;;;;;;5075451;28;20021;-73
2021/09/02 00:59:52;;;;;;;13.43;6.85;;;;;;;;;;5075303;28;20070;-72
2021/09/02 01:02:19;;;;;;;14.80;7.68;;;;;;;;;;5075753;28;20025;-73
2021/09/02 01:04:45;;;;;;;12.88;6.93;;;;;;;;;;5075970;28;20024;-74
2021/09/02 01:07:12;;;;;;;17.10;8.15;;;;;;;;;;5075187;28;20087;-74
2021/09/02 01:09:38;;;;;;;15.77;7.75;;;;;;;;;;5073965;28;20032;-75
2021/09/02 01:12:22;;;;;;;14.90;7.65;;;;;;;;;;5075264;28;20047;-73
2021/09/02 01:14:48;;;;;;;14.80;8.55;;;;;;;;;;5075209;28;20074;-73
2021/09/02 01:17:14;;;;;;;15.70;7.85;;;;;;;;;;5075487;28;20029;-73
2021/09/02 01:19:40;;;;;;;20.15;9.25;;;;;;;;;;5075160;28;20393;-73
2021/09/02 01:22:06;;;;;;;13.73;7.70;;;;;;;;;;5075078;28;20108;-74
2021/09/02 01:24:32;;;;;;;13.40;7.72;;;;;;;;;;5075033;28;20064;-75
2021/09/02 01:26:58;;;;;;;11.77;7.50;;;;;;;;;;5075258;28;20035;-74
2021/09/02 01:29:24;;;;;;;13.90;8.30;;;;;;;;;;5074860;28;20032;-74
2021/09/02 01:31:50;;;;;;;12.73;8.02;;;;;;;;;;5074908;28;20100;-75
2021/09/02 01:34:17;;;;;;;12.73;8.13;;;;;;;;;;5075120;28;20034;-74
2021/09/02 01:36:43;;;;;;;15.60;8.32;;;;;;;;;;5074827;28;20078;-75
2021/09/02 01:39:09;;;;;;;17.15;9.05;;;;;;;;;;5074763;28;20028;-74
2021/09/02 01:41:35;;;;;;;16.33;8.88;;;;;;;;;;5074700;28;20059;-74
2021/09/02 01:44:01;;;;;;;16.55;9.43;;;;;;;;;;5074694;28;20059;-74
2021/09/02 01:46:27;;;;;;;19.30;9.15;;;;;;;;;;5073351;28;20031;-73
2021/09/02 01:48:55;;;;;;;17.10;8.80;;;;;;;;;;5074452;28;20067;-75
2021/09/02 01:51:21;;;;;;;14.65;8.70;;;;;;;;;;5075058;28;20013;-74
2021/09/02 01:53:47;;;;;;;13.82;8.68;;;;;;;;;;5074431;28;20482;-73
2021/09/02 01:56:13;;;;;;;16.95;9.50;;;;;;;;;;5074374;28;20020;-75
2021/09/02 01:58:39;;;;;;;16.75;8.63;;;;;;;;;;5074295;28;20033;-73
2021/09/02 02:01:06;;;;;;;15.32;9.30;;;;;;;;;;5074301;28;20078;-73
2021/09/02 02:03:32;;;;;;;17.85;9.20;;;;;;;;;;5072981;28;20028;-73
2021/09/02 02:05:58;;;;;;;19.13;9.30;;;;;;;;;;5074203;28;20044;-73
2021/09/02 02:08:24;;;;;;;19.38;9.77;;;;;;;;;;5074346;28;20035;-74
2021/09/02 02:10:50;;;;;;;15.05;8.80;;;;;;;;;;5073981;28;20029;-73
2021/09/02 02:13:16;;;;;;;12.15;7.70;;;;;;;;;;5074071;28;20050;-74
2021/09/02 02:15:42;;;;;;;12.65;7.05;;;;;;;;;;5074034;28;20096;-74
2021/09/02 02:18:08;;;;;;;13.60;7.32;;;;;;;;;;5074227;28;20051;-73
2021/09/02 02:20:34;;;;;;;12.07;7.40;;;;;;;;;;5072608;28;20131;-73
2021/09/02 02:23:00;;;;;;;15.73;7.55;;;;;;;;;;5073940;28;20029;-73
2021/09/02 02:25:26;;;;;;;10.95;7.40;;;;;;;;;;5073838;28;20028;-74
2021/09/02 02:27:52;;;;;;;12.43;6.93;;;;;;;;;;5073726;28;20024;-73
2021/09/02 02:30:19;;;;;;;13.05;6.68;;;;;;;;;;5072471;28;20549;-73
2021/09/02 02:32:46;;;;;;;12.45;7.30;;;;;;;;;;5073721;28;20151;-74
2021/09/02 02:35:12;;;;;;;13.40;7.15;;;;;;;;;;5073676;28;20095;-76
2021/09/02 02:37:38;;;;;;;9.88;6.40;;;;;;;;;;5073590;28;20025;-74
2021/09/02 02:40:05;;;;;;;12.35;6.93;;;;;;;;;;5073623;28;20024;-75
2021/09/02 02:42:31;;;;;;;11.68;6.82;;;;;;;;;;5073579;28;20474;-74
2021/09/02 02:44:57;;;;;;;12.75;7.05;;;;;;;;;;5073551;28;20482;-76
2021/09/02 02:47:23;;;;;;;14.73;7.13;;;;;;;;;;5073522;28;20024;-74
2021/09/02 02:49:49;;;;;;;11.52;7.07;;;;;;;;;;5073393;28;20074;-75
2021/09/02 02:52:16;;;;;;;11.15;7.28;;;;;;;;;;5073423;28;20024;-74
2021/09/02 02:54:42;;;;;;;13.02;7.18;;;;;;;;;;5073425;28;20017;-72
2021/09/02 02:57:08;;;;;;;12.48;7.10;;;;;;;;;;5073657;28;20016;-73
2021/09/02 02:59:35;;;;;;;10.55;6.60;;;;;;;;;;5073546;28;20375;-74
2021/09/02 03:02:01;;;;;;;11.15;6.70;;;;;;;;;;5073264;28;20086;-74
2021/09/02 03:04:27;;;;;;;17.85;7.80;;;;;;;;;;5073297;28;20024;-73
2021/09/02 03:06:53;;;;;;;14.75;8.63;;;;;;;;;;5073172;28;20052;-74
2021/09/02 03:09:19;;;;;;;14.05;9.25;;;;;;;;;;5073141;28;20029;-75
2021/09/02 03:11:45;;;;;;;16.15;10.00;;;;;;;;;;5071908;28;20431;-73
2021/09/02 03:14:11;;;;;;;16.60;9.43;;;;;;;;;;5073131;28;20109;-74
2021/09/02 03:16:37;;;;;;;15.38;10.30;;;;;;;;;;5073151;28;20147;-72
2021/09/02 03:19:03;;;;;;;19.77;10.98;;;;;;;;;;5073128;28;20410;-73
2021/09/02 03:21:29;;;;;;;17.98;10.70;;;;;;;;;;5072544;28;20032;-75
2021/09/02 03:23:55;;;;;;;15.93;9.90;;;;;;;;;;5073349;28;20052;-72
2021/09/02 03:26:21;;;;;;;16.20;9.10;;;;;;;;;;5073305;28;20056;-73
2021/09/02 03:28:47;;;;;;;12.13;8.02;;;;;;;;;;5072923;28;20025;-74
2021/09/02 03:31:13;;;;;;;11.60;7.18;;;;;;;;;;5073021;28;20032;-73
2021/09/02 03:33:39;;;;;;;13.07;6.95;;;;;;;;;;5073253;28;20028;-73
2021/09/02 03:36:05;;;;;;;12.63;6.97;;;;;;;;;;5072965;28;20112;-74
2021/09/02 03:38:31;;;;;;;11.38;7.00;;;;;;;;;;5073181;28;20028;-74
2021/09/02 03:40:57;;;;;;;15.20;9.45;;;;;;;;;;5071602;28;20033;-75
2021/09/02 03:43:23;;;;;;;17.02;11.73;;;;;;;;;;5072903;28;20540;-74
2021/09/02 03:45:49;;;;;;;16.40;11.00;;;;;;;;;;5073091;28;20028;-74
2021/09/02 03:48:16;;;;;;;18.50;11.05;;;;;;;;;;5073029;28;20035;-75
2021/09/02 03:50:42;;;;;;;17.17;10.80;;;;;;;;;;5073100;28;20077;-75
2021/09/02 03:53:08;;;;;;;15.13;10.00;;;;;;;;;;5072787;28;20021;-74
2021/09/02 03:55:34;;;;;;;12.73;8.75;;;;;;;;;;5073012;28;20029;-73
2021/09/02 03:58:00;;;;;;;13.85;8.27;;;;;;;;;;5072934;28;20047;-74
2021/09/02 04:00:26;;;;;;;14.27;7.70;;;;;;;;;;5072728;28;20031;-73
2021/09/02 04:02:52;;;;;;;14.60;7.78;;;;;;;;;;5072976;28;20021;-72
2021/09/02 04:05:18;;;;;;;12.13;7.43;;;;;;;;;;5072655;28;20536;-75
2021/09/02 04:07:44;;;;;;;10.95;7.00;;;;;;;;;;5072392;28;20111;-74
2021/09/02 04:10:10;;;;;;;11.82;7.05;;;;;;;;;;5072631;28;20420;-73
2021/09/02 04:12:36;;;;;;;16.83;8.50;;;;;;;;;;5072611;28;20016;-72
2021/09/02 04:15:02;;;;;;;17.23;9.45;;;;;;;;;;5072666;28;20108;-74
2021/09/02 04:17:28;;;;;;;13.52;8.70;;;;;;;;;;5072834;28;20021;-74
2021/09/02 04:19:54;;;;;;;14.35;8.88;;;;;;;;;;5072576;28;20119;-73
2021/09/02 04:22:20;;;;;;;13.45;8.27;;;;;;;;;;5072549;28;20031;-73
2021/09/02 04:24:47;;;;;;;13.95;8.15;;;;;;;;;;5072530;28;20025;-75
2021/09/02 04:27:16;;;;;;;13.98;8.20;;;;;;;;;;5072497;28;20020;-73
2021/09/02 04:29:42;;;;;;;14.48;9.05;;;;;;;;;;5071174;28;20033;-75
2021/09/02 04:32:10;;;;;;;13.32;8.07;;;;;;;;;;5072725;28;20096;-73
2021/09/02 04:34:37;;;;;;;13.10;8.77;;;;;;;;;;5075308;28;20025;-75
2021/09/02 04:37:03;;;;;;;13.15;8.07;;;;;;;;;;5074672;28;20028;-74
2021/09/02 04:39:29;;;;;;;14.00;8.05;;;;;;;;;;5075940;28;20028;-74
2021/09/02 04:41:55;;;;;;;14.43;9.05;;;;;;;;;;5075894;28;20028;-75
2021/09/02 04:44:21;;;;;;;13.90;8.52;;;;;;;;;;5075828;28;20021;-73
2021/09/02 04:46:47;;;;;;;12.65;8.30;;;;;;;;;;5076030;28;20028;-74
2021/09/02 04:49:13;;;;;;;13.65;8.20;;;;;;;;;;5075648;28;20078;-72
2021/09/02 04:51:39;;;;;;;12.07;7.75;;;;;;;;;;5075718;28;20020;-74
2021/09/02 04:54:05;;;;;;;12.85;8.10;;;;;;;;;;5075617;28;20038;-75
2021/09/02 04:56:31;;;;;;;14.55;8.07;;;;;;;;;;5075605;28;20020;-75
2021/09/02 04:58:57;;;;;;;13.02;8.13;;;;;;;;;;5075473;28;20024;-74
2021/09/02 05:01:23;;;;;;;16.30;9.10;;;;;;;;;;5075503;28;20551;-74
2021/09/02 05:03:49;;;;;;;14.45;9.02;;;;;;;;;;5075456;28;20046;-74
2021/09/02 05:06:15;;;;;;;14.98;8.50;;;;;;;;;;5075172;28;20481;-74
2021/09/02 05:08:41;;;;;;;14.98;9.13;;;;;;;;;;5075334;28;20119;-72
2021/09/02 05:11:07;;;;;;;14.57;10.40;;;;;;;;;;5075320;28;20017;-73
2021/09/02 05:13:33;;;;;;;14.45;8.82;;;;;;;;;;5075258;28;20127;-73
2021/09/02 05:15:59;;;;;;;13.38;7.75;;;;;;;;;;5075251;28;20021;-74
2021/09/02 05:18:25;;;;;;;12.05;8.40;;;;;;;;;;5075162;28;20028;-73
2021/09/02 05:20:52;;;;;;;14.63;8.30;;;;;;;;;;5075143;28;20025;-72
2021/09/02 05:23:18;;;;;;;14.68;9.70;;;;;;;;;;5073827;28;20029;-74
2021/09/02 05:25:44;;;;;;;16.77;11.00;;;;;;;;;;5073817;28;20031;-73
2021/09/02 05:28:10;;;;;;;13.98;9.10;;;;;;;;;;5074875;28;20468;-74
2021/09/02 05:30:36;;;;;;;14.98;10.13;;;;;;;;;;5075262;28;20027;-73
2021/09/02 05:33:02;;;;;;;15.05;8.85;;;;;;;;;;5074923;28;20024;-74
2021/09/02 05:35:28;;;;;;;14.65;9.38;;;;;;;;;;5074872;28;20051;-74
2021/09/02 05:37:54;;;;;;;13.85;9.02;;;;;;;;;;5074822;28;20025;-74
2021/09/02 05:40:20;;;;;;;14.52;8.88;;;;;;;;;;5074998;28;20027;-73
2021/09/02 05:42:46;;;;;;;11.98;8.50;;;;;;;;;;5074965;28;20029;-74
2021/09/02 05:45:12;;;;;;;12.93;8.50;;;;;;;;;;5074232;28;20066;-74
2021/09/02 05:47:38;;;;;;;11.85;7.90;;;;;;;;;;5074554;28;20028;-76
2021/09/02 05:50:05;;;;;;;18.63;8.90;;;;;;;;;;5073289;28;20376;-73
2021/09/02 05:52:31;;;;;;;13.80;9.30;;;;;;;;;;5074491;28;20081;-74
2021/09/02 05:54:58;;;;;;;11.75;8.50;;;;;;;;;;5074457;28;20382;-75
2021/09/02 05:57:24;;;;;;;16.65;9.65;;;;;;;;;;5074439;28;20048;-73
2021/09/02 05:59:50;;;;;;;13.40;8.45;;;;;;;;;;5074582;28;20025;-74
2021/09/02 06:02:16;;;;;;;13.85;8.77;;;;;;;;;;5074839;28;20028;-74
2021/09/02 06:04:42;;;;;;;13.02;9.10;;;;;;;;;;5074543;28;20362;-75
2021/09/02 06:07:08;;;;;;;14.43;9.05;;;;;;;;;;5074041;28;20527;-73
2021/09/02 06:09:34;;;;;;;16.38;9.68;;;;;;;;;;5074124;28;20448;-74
2021/09/02 06:12:00;;;;;;;15.55;9.35;;;;;;;;;;5074125;28;20024;-74
2021/09/02 06:14:27;;;;;;;12.65;8.75;;;;;;;;;;5074415;28;20027;-74
2021/09/02 06:16:53;;;;;;;13.90;9.35;;;;;;;;;;5074023;28;20368;-74
2021/09/02 06:19:19;;;;;;;13.43;9.38;;;;;;;;;;5073958;28;20078;-74
2021/09/02 06:21:45;;;;;;;15.68;9.35;;;;;;;;;;5073917;28;20032;-73
2021/09/02 06:24:11;;;;;;;14.52;9.88;;;;;;;;;;5073904;28;20390;-73
2021/09/02 06:26:37;;;;;;;13.75;8.63;;;;;;;;;;5074080;28;20029;-73
2021/09/02 06:29:03;;;;;;;16.77;9.80;;;;;;;;;;5073994;28;20103;-74
2021/09/02 06:31:29;;;;;;;15.07;10.13;;;;;;;;;;5073730;28;20508;-75
2021/09/02 06:33:56;;;;;;;12.82;9.15;;;;;;;;;;5073694;28;20486;-73
2021/09/02 06:36:22;;;;;;;18.02;10.82;;;;;;;;;;5073706;28;20025;-74
2021/09/02 06:38:48;;;;;;;16.65;11.60;;;;;;;;;;5073859;28;20509;-73
2021/09/02 06:41:15;;;;;;;15.65;10.40;;;;;;;;;;5073562;28;20032;-75
2021/09/02 06:43:41;;;;;;;18.08;11.52;;;;;;;;;;5073854;28;20017;-73
2021/09/02 06:46:07;;;;;;;19.30;11.77;;;;;;;;;;5073764;28;20040;-73
2021/09/02 06:48:33;;;;;;;16.80;11.43;;;;;;;;;;5073665;28;20024;-73
2021/09/02 06:50:59;;;;;;;17.70;11.70;;;;;;;;;;5073716;28;20104;-74
2021/09/02 06:53:25;;;;;;;22.00;11.85;;;;;;;;;;5073397;28;20025;-74
2021/09/02 06:55:51;;;;;;;19.45;11.75;;;;;;;;;;5073084;28;20048;-73
2021/09/02 06:58:17;;;;;;;19.40;12.40;;;;;;;;;;5073164;28;20063;-73
2021/09/02 07:00:43;;;;;;;18.00;12.00;;;;;;;;;;5073370;28;20389;-74
2021/09/02 07:03:09;;;;;;;18.38;12.20;;;;;;;;;;5073292;28;20501;-75
2021/09/02 07:05:35;;;;;;;21.00;11.45;;;;;;;;;;5073281;28;20037;-74
2021/09/02 07:08:01;;;;;;;20.02;12.45;;;;;;;;;;5073021;28;20076;-73
2021/09/02 07:10:27;;;;;;;20.42;13.10;;;;;;;;;;5073631;28;20036;-74
2021/09/02 07:12:53;;;;;;;18.45;12.45;;;;;;;;;;5073195;28;20025;-74
2021/09/02 07:15:19;;;;;;;19.45;13.05;;;;;;;;;;5073135;28;20077;-77
2021/09/02 07:17:45;;;;;;;19.77;12.25;;;;;;;;;;5071848;28;20024;-75
2021/09/02 07:20:12;;;;;;;20.38;12.20;;;;;;;;;;5073840;28;20017;-75
2021/09/02 07:22:38;;;;;;;20.17;12.55;;;;;;;;;;5073293;28;20104;-72
2021/09/02 07:25:04;;;;;;;18.70;12.55;;;;;;;;;;5073346;28;20489;-71
2021/09/02 07:27:30;;;;;;;20.92;12.60;;;;;;;;;;5073047;28;20020;-76
2021/09/02 07:29:57;;;;;;;18.70;12.35;;;;;;;;;;5073427;28;20025;-74
2021/09/02 07:32:22;;;;;;;20.65;12.48;;;;;;;;;;5072932;28;20074;-72
2021/09/02 07:34:49;;;;;;;20.55;12.65;;;;;;;;;;5072272;28;20028;-73
2021/09/02 07:37:16;;;;;;;19.45;13.30;;;;;;;;;;5073376;28;20016;-74
2021/09/02 07:39:42;;;;;;;19.92;12.45;;;;;;;;;;5072947;28;20021;-72
2021/09/02 07:42:09;;;;;;;19.15;13.02;;;;;;;;;;5072818;28;20597;-74
2021/09/02 07:44:35;;;;;;;18.77;11.98;;;;;;;;;;5072339;28;20513;-74
2021/09/02 07:47:01;;;;;;;19.50;12.05;;;;;;;;;;5071851;28;20021;-73
2021/09/02 07:49:27;;;;;;;20.55;13.00;;;;;;;;;;5070732;28;20035;-72
2021/09/02 07:51:53;;;;;;;19.98;12.18;;;;;;;;;;5072560;28;20016;-71
2021/09/02 07:54:19;;;;;;;17.88;12.50;;;;;;;;;;5072713;28;20054;-74
2021/09/02 07:56:45;;;;;;;15.98;11.25;;;;;;;;;;5071061;28;20111;-72
2021/09/02 07:59:11;;;;;;;17.20;11.88;;;;;;;;;;5072621;28;20139;-72
2021/09/02 08:01:37;;;;;;;18.30;12.38;;;;;;;;;;5072115;28;20028;-73
2021/09/02 08:04:03;;;;;;;19.52;12.25;;;;;;;;;;5071542;28;20029;-73
2021/09/02 08:06:30;;;;;;;16.88;10.77;;;;;;;;;;5070076;28;20040;-77
2021/09/02 08:08:56;;;;;;;16.75;11.02;;;;;;;;;;5075597;28;20029;-75
2021/09/02 08:11:22;;;;;;;20.15;12.20;;;;;;;;;;5076432;28;20027;-77
2021/09/02 08:13:48;;;;;;;20.90;11.38;;;;;;;;;;5076303;28;20051;-76
2021/09/02 08:16:14;;;;;;;19.50;11.80;;;;;;;;;;5076106;28;20020;-77
2021/09/02 08:18:40;;;;;;;18.13;11.02;;;;;;;;;;5076434;28;20486;-78
2021/09/02 08:21:06;;;;;;;19.55;12.23;;;;;;;;;;5075948;28;20021;-77
2021/09/02 08:23:32;;;;;;;19.27;12.13;;;;;;;;;;5076274;28;20056;-78
2021/09/02 08:25:58;;;;;;;18.80;12.07;;;;;;;;;;5076003;28;20028;-79
2021/09/02 08:28:24;;;;;;;14.73;10.75;;;;;;;;;;5076120;28;20032;-77
2021/09/02 08:30:50;;;;;;;20.50;13.25;;;;;;;;;;5075962;28;20016;-77
2021/09/02 08:33:16;;;;;;;16.83;11.00;;;;;;;;;;5074470;28;20039;-75
2021/09/02 08:35:42;;;;;;;15.63;10.57;;;;;;;;;;5076577;28;20028;-78
2021/09/02 08:38:09;;;;;;;15.02;11.20;;;;;;;;;;5075726;28;20050;-77
2021/09/02 08:40:37;;;;;;;17.27;12.10;;;;;;;;;;5074310;28;20031;-77
2021/09/02 08:43:04;;;;;;;20.20;11.55;;;;;;;;;;5076169;28;20077;-77
2021/09/02 08:45:30;;;;;;;17.75;11.18;;;;;;;;;;5075866;28;20638;-80
2021/09/02 08:47:56;;;;;;;18.48;11.00;;;;;;;;;;5075910;28;20039;-77
2021/09/02 08:50:24;;;;;;;17.50;10.88;;;;;;;;;;5075125;28;20032;-80
2021/09/02 08:52:51;;;;;;;14.93;10.35;;;;;;;;;;5075871;28;20378;-78
2021/09/02 08:55:18;;;;;;;17.08;11.98;;;;;;;;;;5075145;28;20572;-76
2021/09/02 08:57:47;;;;;;;15.68;10.82;;;;;;;;;;5075350;28;20082;-78
2021/09/02 09:00:13;;;;;;;17.48;10.95;;;;;;;;;;5075566;28;20067;-80
2021/09/02 09:02:45;;;;;;;15.27;10.38;;;;;;;;;;5074143;28;20086;-73
2021/09/02 09:05:20;;;;;;;15.52;10.18;;;;;;;;;;5074425;28;20024;-75
2021/09/02 09:07:47;;;;;;;14.48;9.32;;;;;;;;;;5074887;28;20082;-75
2021/09/02 09:10:15;;;;;;;14.38;9.80;;;;;;;;;;5075540;28;20024;-84
2021/09/02 09:12:45;;;;;;;16.90;10.25;;;;;;;;;;5075874;28;20020;-83
2021/09/02 09:15:19;;;;;;;15.80;10.63;;;;;;;;;;5075526;28;20068;-82
2021/09/02 09:17:46;;;;;;;15.23;9.98;;;;;;;;;;5067010;28;20115;-79
2021/09/02 09:20:13;;;;;;;15.02;9.60;;;;;;;;;;5074348;28;20086;-80
2021/09/02 09:22:39;;;;;;;14.27;10.40;;;;;;;;;;5074963;28;20107;-80
2021/09/02 09:25:06;;;;;;;12.50;9.43;;;;;;;;;;5075059;28;20029;-80
2021/09/02 09:27:32;;;;;;;12.85;8.65;;;;;;;;;;5075337;28;20032;-78
2021/09/02 09:30:05;;;;;;;12.27;8.77;;;;;;;;;;5074827;28;20482;-79
2021/09/02 09:32:37;;;;;;;12.60;9.10;;;;;;;;;;5074925;28;20052;-72
2021/09/02 09:35:04;;;;;;;12.23;8.80;;;;;;;;;;5074662;28;20048;-76
2021/09/02 09:37:30;;;;;;;13.88;8.77;;;;;;;;;;5074477;28;20066;-77
2021/09/02 09:40:09;;;;;;;13.55;9.32;;;;;;;;;;5074305;28;20028;-76
2021/09/02 09:42:35;;;;;;;14.88;9.23;;;;;;;;;;5074606;28;20028;-78
2021/09/02 09:45:01;;;;;;;15.70;10.25;;;;;;;;;;5074613;28;20024;-77
2021/09/02 09:47:33;;;;;;;14.23;9.07;;;;;;;;;;5074617;28;20036;-75
2021/09/02 09:50:01;;;;;;;14.32;8.85;;;;;;;;;;5074532;28;20031;-75
2021/09/02 09:52:27;;;;;;;13.07;9.50;;;;;;;;;;5074371;28;20107;-74
2021/09/02 09:54:55;;;;;;;12.10;8.70;;;;;;;;;;5074496;28;20017;-74
2021/09/02 09:57:21;;;;;;;13.73;8.35;;;;;;;;;;5074164;28;20025;-74
2021/09/02 09:59:47;;;;;;;16.08;8.93;;;;;;;;;;5074496;28;20451;-74
2021/09/02 10:02:13;;;;;;;13.10;8.35;;;;;;;;;;5072934;28;20466;-73
2021/09/02 10:04:41;;;;;;;14.50;7.55;;;;;;;;;;5074256;28;20035;-75
2021/09/02 10:07:07;;;;;;;12.23;8.80;;;;;;;;;;5073986;28;20044;-75
2021/09/02 10:09:34;;;;;;;12.18;8.57;;;;;;;;;;5074240;28;20420;-75
2021/09/02 10:12:01;;;;;;;13.10;9.20;;;;;;;;;;5074136;28;20527;-76
2021/09/02 10:14:27;;;;;;;12.65;8.18;;;;;;;;;;5072796;28;20027;-78
2021/09/02 10:16:53;;;;;;;16.02;9.10;;;;;;;;;;5074239;28;20025;-74
2021/09/02 10:19:20;;;;;;;14.65;9.32;;;;;;;;;;5074278;28;20054;-76
2021/09/02 10:21:47;;;;;;;13.98;8.75;;;;;;;;;;5074270;28;20032;-73
2021/09/02 10:24:28;;;;;;;11.55;8.45;;;;;;;;;;5073934;28;20103;-75
2021/09/02 10:26:54;;;;;;;14.45;9.55;;;;;;;;;;5073646;28;20046;-76
2021/09/02 10:29:40;;;;;;;13.90;8.50;;;;;;;;;;5072525;28;20032;-75
2021/09/02 10:32:26;;;;;;;14.32;9.13;;;;;;;;;;5073646;28;20036;-74
2021/09/02 10:35:12;;;;;;;12.02;8.40;;;;;;;;;;5073780;28;20025;-73
2021/09/02 10:37:43;;;;;;;12.82;8.75;;;;;;;;;;5073815;28;20495;-74
2021/09/02 10:40:29;;;;;;;11.48;7.70;;;;;;;;;;5073548;28;20032;-75
2021/09/02 10:42:56;;;;;;;12.20;8.10;;;;;;;;;;5060304;28;20032;-75
2021/09/02 10:45:30;;;;;;;13.02;8.25;;;;;;;;;;5072294;28;20036;-73
2021/09/02 10:47:57;;;;;;;11.02;7.93;;;;;;;;;;5071924;28;20513;-74
2021/09/02 10:50:27;;;;;;;12.40;8.15;;;;;;;;;;5073520;28;20142;-75
2021/09/02 10:52:54;;;;;;;13.27;9.07;;;;;;;;;;5073486;28;20013;-73
2021/09/02 10:55:30;;;;;;;14.10;8.90;;;;;;;;;;5073426;28;20028;-74
2021/09/02 10:58:01;;;;;;;13.18;8.50;;;;;;;;;;5073622;28;20024;-74
2021/09/02 11:00:35;;;;;;;13.05;9.35;;;;;;;;;;5073685;28;20032;-74
2021/09/02 11:03:13;;;;;;;10.95;7.90;;;;;;;;;;5073597;28;20104;-72
2021/09/02 11:05:41;;;;;;;12.95;8.30;;;;;;;;;;5073453;28;20158;-74
2021/09/02 11:08:07;;;;;;;12.82;9.05;;;;;;;;;;5073229;28;20108;-71
2021/09/02 11:10:33;;;;;;;12.27;8.38;;;;;;;;;;5073247;28;20028;-72
2021/09/02 11:13:04;;;;;;;12.05;8.75;;;;;;;;;;5073439;28;20094;-74
2021/09/02 11:15:31;;;;;;;13.90;8.15;;;;;;;;;;5073221;28;20098;-74
2021/09/02 11:18:01;;;;;;;13.38;8.63;;;;;;;;;;5073443;28;20048;-72
2021/09/02 11:20:28;;;;;;;;;;;;;;;;;;5073597;28;20024;-73
2021/09/02 11:23:07;;;;;;;14.50;8.45;;;;;;;;;;5073119;28;19911;-73
2021/09/02 11:25:44;;;;;;;13.13;8.05;;;;;;;;;;5073414;28;20489;-74
2021/09/02 11:28:10;;;;;;;13.50;8.55;;;;;;;;;;5072937;28;20495;-72
2021/09/02 11:30:36;;;;;;;12.70;8.52;;;;;;;;;;5073040;28;20052;-73
2021/09/02 11:33:06;;;;;;;12.65;8.63;;;;;;;;;;5073016;28;20099;-71
2021/09/02 11:35:32;;;;;;;11.27;7.25;;;;;;;;;;5073013;28;20060;-73
2021/09/02 11:37:58;;;;;;;11.93;7.18;;;;;;;;;;5073502;28;20053;-74
2021/09/02 11:40:28;;;;;;;10.40;7.07;;;;;;;;;;5072970;28;20576;-72
2021/09/02 11:42:55;;;;;;;11.82;7.25;;;;;;;;;;5074507;28;20024;-75
2021/09/02 11:45:22;;;;;;;12.85;7.50;;;;;;;;;;5077293;28;20029;-72
2021/09/02 11:47:52;;;;;;;15.40;7.65;;;;;;;;;;5076942;28;20017;-74
2021/09/02 11:50:18;;;;;;;14.37;7.83;;;;;;;;;;5076923;28;20036;-73
2021/09/02 11:52:48;;;;;;;10.18;7.03;;;;;;;;;;5077153;28;20292;-73
2021/09/02 11:55:33;;;;;;;11.25;7.03;;;;;;;;;;5077363;28;20020;-73
2021/09/02 11:58:00;;;;;;;11.20;7.10;;;;;;;;;;5076709;28;20025;-72
2021/09/02 12:00:27;;;;;;;9.82;6.88;;;;;;;;;;5076727;28;20098;-72
2021/09/02 12:02:56;;;;;;;11.65;7.75;;;;;;;;;;5076947;28;20016;-73
2021/09/02 12:05:24;;;;;;;10.90;7.50;;;;;;;;;;5076617;28;20021;-73
2021/09/02 12:07:52;;;;;;;11.77;7.22;;;;;;;;;;5076166;28;20048;-76
2021/09/02 12:10:19;;;;;;;11.05;7.03;;;;;;;;;;5076777;28;20394;-72
2021/09/02 12:12:45;;;;;;;12.73;7.75;;;;;;;;;;5076294;28;20024;-73
2021/09/02 12:15:30;;;;;;;11.30;7.50;;;;;;;;;;5075173;28;20094;-82
2021/09/02 12:18:06;;;;;;;11.32;6.97;;;;;;;;;;5075876;28;20117;-79
2021/09/02 12:20:32;;;;;;;11.35;6.47;;;;;;;;;;5075023;28;20029;-77
2021/09/02 12:22:58;;;;;;;12.00;6.95;;;;;;;;;;5076031;28;20092;-78
2021/09/02 12:25:24;;;;;;;8.65;6.78;;;;;;;;;;5076185;28;20024;-76
2021/09/02 12:27:52;;;;;;;11.73;6.57;;;;;;;;;;5075831;28;20017;-78
2021/09/02 12:30:38;;;;;;;12.93;7.40;;;;;;;;;;5075698;28;20089;-73
2021/09/02 12:33:14;;;;;;;9.35;6.55;;;;;;;;;;5076668;28;20028;-77
2021/09/02 12:35:41;;;;;;;9.77;6.90;;;;;;;;;;5075437;28;20057;-76
2021/09/02 12:38:07;;;;;;;8.63;6.55;;;;;;;;;;5075260;28;20060;-74
2021/09/02 12:40:33;;;;;;;11.38;6.93;;;;;;;;;;5075868;28;20397;-76
2021/09/02 12:43:19;;;;;;;13.88;7.68;;;;;;;;;;5075748;28;20437;-76
2021/09/02 12:45:58;;;;;;;10.02;6.63;;;;;;;;;;5076426;28;20082;-75
2021/09/02 12:48:24;;;;;;;9.52;6.18;;;;;;;;;;5075387;28;20033;-76
2021/09/02 12:50:51;;;;;;;13.73;6.72;;;;;;;;;;5075712;28;20380;-75
2021/09/02 12:53:17;;;;;;;8.32;5.72;;;;;;;;;;5075323;28;20074;-76
2021/09/02 12:55:43;;;;;;;12.70;7.65;;;;;;;;;;5075184;28;20409;-75
2021/09/02 12:58:09;;;;;;;11.65;6.57;;;;;;;;;;5075157;28;20025;-75
2021/09/02 13:00:38;;;;;;;10.20;6.68;;;;;;;;;;5075854;28;20032;-78
2021/09/02 13:03:09;;;;;;;12.00;6.70;;;;;;;;;;5075475;28;20547;-76
2021/09/02 13:05:35;;;;;;;11.50;7.15;;;;;;;;;;5075754;28;20038;-77
2021/09/02 13:08:02;;;;;;;11.52;7.85;;;;;;;;;;5075004;28;20125;-74
2021/09/02 13:10:29;;;;;;;11.30;7.53;;;;;;;;;;5074647;28;20517;-75
2021/09/02 13:12:56;;;;;;;9.40;6.35;;;;;;;;;;5073589;28;20108;-74
2021/09/02 13:15:22;;;;;;;12.75;7.30;;;;;;;;;;5073702;28;20328;-75
2021/09/02 13:17:49;;;;;;;10.43;7.10;;;;;;;;;;5073426;28;20044;-76
2021/09/02 13:20:16;;;;;;;9.10;6.68;;;;;;;;;;5072513;28;20024;-77
2021/09/02 13:22:42;;;;;;;10.65;6.93;;;;;;;;;;5072377;28;20409;-76
2021/09/02 13:25:09;;;;;;;10.50;7.47;;;;;;;;;;5075151;28;20021;-75
2021/09/02 13:27:35;;;;;;;11.80;6.80;;;;;;;;;;5074740;28;20060;-76
2021/09/02 13:30:01;;;;;;;11.70;6.70;;;;;;;;;;5074661;28;20028;-75
2021/09/02 13:32:28;;;;;;;9.40;6.25;;;;;;;;;;5074270;28;20031;-74
2021/09/02 13:34:54;;;;;;;11.65;6.40;;;;;;;;;;5074018;28;20566;-75
2021/09/02 13:37:20;;;;;;;10.55;7.20;;;;;;;;;;5074870;28;20024;-74
2021/09/02 13:39:46;;;;;;;10.60;6.90;;;;;;;;;;5055372;28;20028;-74
2021/09/02 13:42:12;;;;;;;11.35;6.78;;;;;;;;;;5068955;28;20021;-74
2021/09/02 13:44:38;;;;;;;10.77;6.35;;;;;;;;;;5074218;28;20032;-76
2021/09/02 13:47:04;;;;;;;10.13;6.72;;;;;;;;;;5074978;28;20492;-75
2021/09/02 13:49:30;;;;;;;12.88;7.60;;;;;;;;;;5073797;28;20116;-75
2021/09/02 13:51:56;;;;;;;11.02;7.15;;;;;;;;;;5073296;28;20111;-75
2021/09/02 13:54:23;;;;;;;10.32;6.40;;;;;;;;;;5074065;28;20028;-75
2021/09/02 13:56:49;;;;;;;10.88;6.43;;;;;;;;;;5075115;28;20044;-75
2021/09/02 13:59:15;;;;;;;11.32;7.10;;;;;;;;;;5072841;28;20059;-73
2021/09/02 14:01:42;;;;;;;11.75;6.85;;;;;;;;;;5073109;28;20082;-74
2021/09/02 14:04:08;;;;;;;9.80;6.85;;;;;;;;;;5073842;28;20032;-74
2021/09/02 14:06:35;;;;;;;11.07;6.82;;;;;;;;;;5073969;28;20127;-74
2021/09/02 14:09:01;;;;;;;9.73;6.60;;;;;;;;;;5073883;28;20531;-76
2021/09/02 14:11:27;;;;;;;12.25;6.78;;;;;;;;;;5072973;28;20115;-76
2021/09/02 14:13:53;;;;;;;9.77;6.72;;;;;;;;;;5073966;28;20056;-75
2021/09/02 14:16:19;;;;;;;9.75;6.80;;;;;;;;;;5074117;28;20095;-76
2021/09/02 14:18:45;;;;;;;9.25;6.50;;;;;;;;;;5072059;28;20581;-75
2021/09/02 14:21:11;;;;;;;12.57;6.85;;;;;;;;;;5072066;28;20103;-77
2021/09/02 14:23:37;;;;;;;10.82;6.88;;;;;;;;;;5072369;28;20107;-75
2021/09/02 14:26:03;;;;;;;11.00;6.80;;;;;;;;;;5073245;28;20074;-75
2021/09/02 14:28:29;;;;;;;9.40;6.38;;;;;;;;;;5072458;28;20558;-75